KRWL

Details ICAO KRWL
Name RAWLINS MUNI HARVEY FLD
Region United States
Timezone America/Denver (UTC-7.0)
Plans Departing 1
Arriving 1
Stats Elevation 6,813 ft / 2,077 m (AMSL)
Location 41.805698° -107.200542°
Runways 2
Magnetic Variation 9.539° E
Sunrise 2017-12-18 14:32:43 UTC / 2017-12-18 07:32:43 Local
Sunset 2017-12-18 23:41:06 UTC / 2017-12-18 16:41:06 Local
Advertisement - Login to hide

Runways

ID Width Length Bearing (true) Bearing (mag) Surface Threshold Offset Overrun Length
04 98 ft / 30 m 6,990 ft / 2,131 m 53.89° 44.35° Asphalt 0 ft / 0 m 0 ft / 0 m
10 59 ft / 18 m 4,283 ft / 1,305 m 115.11° 105.57° Asphalt 0 ft / 0 m 0 ft / 0 m
22 98 ft / 30 m 6,990 ft / 2,131 m 233.91° 224.37° Asphalt 0 ft / 0 m 0 ft / 0 m
28 59 ft / 18 m 4,283 ft / 1,305 m 295.12° 285.58° Asphalt 0 ft / 0 m 0 ft / 0 m

Map

Weather


0- 5 10 15 20 25 30 35+ Temperature / ° C

Clouds and Precipitation
Forecast for 2017-12-18 12:00 UTC. Updated 2 hours ago

Ground ~20,000 ft ~40,000 ft Winds

METAR

KRWL 181253Z AUTO 24022G32KT 10SM CLR M03/M08 A3004 RMK AO2 PK WND 24035/1213 SLP195 T10281083 PWINO FZRANO $

TAF

KRWL 181204Z 1812/1912 24025G40KT P6SM SCT250 FM181700 27028G42KT P6SM BKN250 FM190000 25014KT P6SM BKN250 AMD LTD TO CLD VIS AND WIND

Frequencies

Recorded 118.52 MHz ASOS
Unicom 123.00 MHz CTAF/UNICOM
Warning: Do not use this data for real-world aviation or navigation. No guarantee of current accuracy is given.